Time;durP1;ratioP1;P1;durP2;ratioP2;P2;SDS_P1;SDS_P2;PMS_P1;PMS_P2;Temp;Humidity;BMP_temperature;BMP_pressure;BME280_temperature;BME280_humidity;BME280_pressure;Samples;Min_cycle;Max_cycle;Signal;HPM_P1;HPM_P2
2022/10/30 00:00:05;;;;;;;17.88;8.82;;;;;;;;;;524328;28;1503;-61
2022/10/30 00:00:20;;;;;;;15.73;8.70;;;;;;;;;;523627;28;1918;-61
2022/10/30 00:00:36;;;;;;;15.40;8.13;;;;;;;;;;522820;28;1546;-62
2022/10/30 00:00:51;;;;;;;17.40;8.30;;;;;;;;;;522149;28;994;-62
2022/10/30 00:01:06;;;;;;;16.15;8.50;;;;;;;;;;521231;28;1483;-61
2022/10/30 00:01:22;;;;;;;16.43;8.43;;;;;;;;;;522822;28;1101;-62
2022/10/30 00:01:37;;;;;;;18.37;8.33;;;;;;;;;;521917;28;1067;-62
2022/10/30 00:01:52;;;;;;;16.53;8.07;;;;;;;;;;520669;28;1268;-62
2022/10/30 00:02:07;;;;;;;16.30;8.13;;;;;;;;;;522424;28;1145;-61
2022/10/30 00:02:23;;;;;;;17.37;8.43;;;;;;;;;;521044;28;1190;-61
2022/10/30 00:02:38;;;;;;;17.87;8.67;;;;;;;;;;520559;28;1164;-62
2022/10/30 00:02:53;;;;;;;19.53;8.50;;;;;;;;;;518649;28;1479;-62
2022/10/30 00:03:13;;;;;;;18.17;8.48;;;;;;;;;;516862;28;1140;-62
2022/10/30 00:03:28;;;;;;;14.77;8.23;;;;;;;;;;519546;28;1234;-62
2022/10/30 00:03:44;;;;;;;16.23;7.83;;;;;;;;;;520503;28;1822;-61
2022/10/30 00:03:59;;;;;;;16.10;7.87;;;;;;;;;;519808;28;1146;-62
2022/10/30 00:04:14;;;;;;;17.00;8.10;;;;;;;;;;521640;28;1083;-62
2022/10/30 00:04:30;;;;;;;17.35;8.20;;;;;;;;;;521573;28;1145;-62
2022/10/30 00:04:45;;;;;;;17.20;8.10;;;;;;;;;;523235;28;1211;-62
2022/10/30 00:05:00;;;;;;;17.37;7.87;;;;;;;;;;523944;28;1504;-62
2022/10/30 00:05:16;;;;;;;15.37;7.87;;;;;;;;;;522442;28;1105;-62
2022/10/30 00:05:31;;;;;;;17.17;8.15;;;;;;;;;;523165;28;1794;-62
2022/10/30 00:05:48;;;;;;;16.07;8.03;;;;;;;;;;523625;28;1047;-62
2022/10/30 00:06:07;;;;;;;14.82;7.80;;;;;;;;;;524164;28;1117;-62
2022/10/30 00:06:22;;;;;;;18.27;8.38;;;;;;;;;;525066;28;1102;-61
2022/10/30 00:06:37;;;;;;;15.50;8.03;;;;;;;;;;524152;28;1148;-61
2022/10/30 00:06:53;;;;;;;19.42;8.25;;;;;;;;;;523649;28;1211;-62
2022/10/30 00:07:08;;;;;;;20.33;8.53;;;;;;;;;;520613;28;2059;-62
2022/10/30 00:07:23;;;;;;;16.93;8.17;;;;;;;;;;521304;28;1220;-62
2022/10/30 00:07:38;;;;;;;18.13;8.07;;;;;;;;;;521560;28;1173;-61
2022/10/30 00:07:55;;;;;;;16.17;8.05;;;;;;;;;;522775;28;1153;-61
2022/10/30 00:08:12;;;;;;;15.02;7.97;;;;;;;;;;519478;28;1271;-62
2022/10/30 00:08:27;;;;;;;14.85;7.82;;;;;;;;;;520579;28;1189;-62
2022/10/30 00:08:43;;;;;;;14.77;7.73;;;;;;;;;;522979;28;1110;-61
2022/10/30 00:08:58;;;;;;;15.00;7.63;;;;;;;;;;516988;28;1319;-61
2022/10/30 00:09:13;;;;;;;15.03;7.77;;;;;;;;;;514793;28;1707;-62
2022/10/30 00:09:29;;;;;;;14.70;7.97;;;;;;;;;;517491;28;1306;-62
2022/10/30 00:09:44;;;;;;;14.07;8.13;;;;;;;;;;519080;28;1328;-62
2022/10/30 00:09:59;;;;;;;16.70;8.30;;;;;;;;;;518973;28;1548;-62
2022/10/30 00:10:16;;;;;;;17.75;8.27;;;;;;;;;;521669;28;990;-62
2022/10/30 00:10:33;;;;;;;15.05;7.90;;;;;;;;;;520633;28;1130;-61
2022/10/30 00:10:49;;;;;;;12.98;7.78;;;;;;;;;;522786;28;1132;-62
2022/10/30 00:11:09;;;;;;;13.57;7.40;;;;;;;;;;523626;28;1140;-62
2022/10/30 00:11:24;;;;;;;17.80;7.80;;;;;;;;;;524075;28;1102;-62
2022/10/30 00:11:40;;;;;;;18.60;7.97;;;;;;;;;;522790;28;1200;-62
2022/10/30 00:11:55;;;;;;;16.05;8.02;;;;;;;;;;523243;28;1196;-62
2022/10/30 00:12:11;;;;;;;12.73;7.63;;;;;;;;;;524669;28;1168;-62
2022/10/30 00:12:26;;;;;;;13.70;7.53;;;;;;;;;;526697;28;1045;-61
2022/10/30 00:12:42;;;;;;;16.63;7.70;;;;;;;;;;525269;28;1368;-62
2022/10/30 00:12:57;;;;;;;16.73;7.50;;;;;;;;;;525178;28;1914;-61
2022/10/30 00:13:12;;;;;;;17.37;8.13;;;;;;;;;;526329;28;1271;-61
2022/10/30 00:13:28;;;;;;;20.58;8.55;;;;;;;;;;521385;28;1355;-62
2022/10/30 00:13:44;;;;;;;18.00;8.20;;;;;;;;;;524785;28;1196;-62
2022/10/30 00:13:59;;;;;;;15.68;7.80;;;;;;;;;;524789;28;1211;-62
2022/10/30 00:14:14;;;;;;;14.93;7.90;;;;;;;;;;526460;28;1145;-62
2022/10/30 00:14:30;;;;;;;14.20;7.63;;;;;;;;;;527556;28;1176;-62
2022/10/30 00:14:45;;;;;;;14.40;7.47;;;;;;;;;;525557;28;917;-62
2022/10/30 00:15:01;;;;;;;14.53;7.90;;;;;;;;;;526356;28;1088;-61
2022/10/30 00:15:16;;;;;;;16.10;7.97;;;;;;;;;;525278;28;1193;-62
2022/10/30 00:15:32;;;;;;;15.40;7.95;;;;;;;;;;525749;28;1136;-61
2022/10/30 00:15:51;;;;;;;13.30;7.67;;;;;;;;;;524453;28;1184;-62
2022/10/30 00:16:07;;;;;;;16.33;7.90;;;;;;;;;;525025;28;1295;-62
2022/10/30 00:16:22;;;;;;;18.90;8.10;;;;;;;;;;525253;28;1196;-61
2022/10/30 00:16:38;;;;;;;17.43;7.97;;;;;;;;;;525315;28;1374;-62
2022/10/30 00:16:53;;;;;;;15.10;7.83;;;;;;;;;;525018;28;1339;-62
2022/10/30 00:17:09;;;;;;;15.00;8.10;;;;;;;;;;525269;28;990;-62
2022/10/30 00:17:24;;;;;;;17.40;8.03;;;;;;;;;;526116;28;982;-62
2022/10/30 00:17:39;;;;;;;18.03;7.80;;;;;;;;;;525633;28;1105;-62
2022/10/30 00:17:55;;;;;;;16.42;7.80;;;;;;;;;;524951;28;1179;-61
2022/10/30 00:18:10;;;;;;;14.60;7.63;;;;;;;;;;522487;28;1538;-61
2022/10/30 00:18:25;;;;;;;13.73;7.63;;;;;;;;;;522977;28;1193;-61
2022/10/30 00:18:42;;;;;;;14.48;7.97;;;;;;;;;;524741;28;1337;-62
2022/10/30 00:18:57;;;;;;;14.68;7.85;;;;;;;;;;522452;28;1254;-61
2022/10/30 00:19:12;;;;;;;14.40;7.68;;;;;;;;;;523697;28;1452;-61
2022/10/30 00:19:27;;;;;;;14.30;7.50;;;;;;;;;;523337;28;1015;-61
2022/10/30 00:19:43;;;;;;;14.63;7.40;;;;;;;;;;521902;28;1648;-61
2022/10/30 00:19:58;;;;;;;14.60;7.23;;;;;;;;;;519553;28;1201;-61
2022/10/30 00:20:13;;;;;;;16.30;7.20;;;;;;;;;;518367;28;1777;-61
2022/10/30 00:20:29;;;;;;;17.10;7.50;;;;;;;;;;520967;28;1049;-61
2022/10/30 00:20:44;;;;;;;15.93;7.53;;;;;;;;;;522474;28;930;-61
2022/10/30 00:21:08;;;;;;;16.47;7.40;;;;;;;;;;524477;28;1081;-61
2022/10/30 00:21:23;;;;;;;15.55;7.68;;;;;;;;;;523864;28;1086;-61
2022/10/30 00:21:38;;;;;;;16.05;7.82;;;;;;;;;;523372;28;1294;-61
2022/10/30 00:21:56;;;;;;;15.77;7.83;;;;;;;;;;521259;28;1270;-62
2022/10/30 00:22:11;;;;;;;17.27;7.97;;;;;;;;;;525594;28;1179;-61
2022/10/30 00:22:27;;;;;;;15.57;7.53;;;;;;;;;;525838;28;1153;-61
2022/10/30 00:22:42;;;;;;;14.13;7.23;;;;;;;;;;525866;28;1121;-62
2022/10/30 00:22:57;;;;;;;13.20;7.20;;;;;;;;;;525454;28;986;-61
2022/10/30 00:23:13;;;;;;;11.27;7.25;;;;;;;;;;524351;28;1373;-61
2022/10/30 00:23:28;;;;;;;14.27;7.77;;;;;;;;;;522631;28;1154;-61
2022/10/30 00:23:46;;;;;;;14.85;8.07;;;;;;;;;;525724;28;1133;-61
2022/10/30 00:24:01;;;;;;;16.58;7.95;;;;;;;;;;523969;28;1451;-62
2022/10/30 00:24:16;;;;;;;16.48;7.70;;;;;;;;;;524207;28;1050;-62
2022/10/30 00:24:32;;;;;;;14.90;7.50;;;;;;;;;;525576;28;1276;-61
2022/10/30 00:24:47;;;;;;;17.60;7.73;;;;;;;;;;525580;28;1176;-61
2022/10/30 00:25:05;;;;;;;20.53;8.10;;;;;;;;;;526880;28;1418;-61
2022/10/30 00:25:20;;;;;;;16.15;7.80;;;;;;;;;;524535;28;1133;-61
2022/10/30 00:25:36;;;;;;;14.73;7.50;;;;;;;;;;525578;28;1220;-61
2022/10/30 00:25:51;;;;;;;14.57;7.70;;;;;;;;;;525015;28;1216;-62
2022/10/30 00:26:06;;;;;;;15.48;7.65;;;;;;;;;;523723;28;995;-61
2022/10/30 00:26:22;;;;;;;17.57;7.73;;;;;;;;;;523691;28;1171;-61
2022/10/30 00:26:37;;;;;;;16.88;7.80;;;;;;;;;;524364;28;1507;-62
2022/10/30 00:26:53;;;;;;;13.23;7.13;;;;;;;;;;523022;28;1121;-62
2022/10/30 00:27:08;;;;;;;13.07;6.93;;;;;;;;;;524087;28;1166;-62
2022/10/30 00:27:24;;;;;;;13.30;7.10;;;;;;;;;;524327;28;1434;-61
2022/10/30 00:27:39;;;;;;;12.00;7.20;;;;;;;;;;523293;28;1073;-62
2022/10/30 00:27:54;;;;;;;10.93;7.05;;;;;;;;;;524475;28;1122;-61
2022/10/30 00:28:10;;;;;;;13.20;7.47;;;;;;;;;;526145;28;1072;-62
2022/10/30 00:28:25;;;;;;;16.67;7.90;;;;;;;;;;522686;28;1194;-61
2022/10/30 00:28:40;;;;;;;20.15;8.10;;;;;;;;;;524059;28;1085;-62
2022/10/30 00:28:56;;;;;;;18.53;8.20;;;;;;;;;;524402;28;1081;-61
2022/10/30 00:29:11;;;;;;;14.60;8.00;;;;;;;;;;525355;28;1148;-62
2022/10/30 00:29:26;;;;;;;15.60;7.63;;;;;;;;;;525217;28;1113;-62
2022/10/30 00:29:42;;;;;;;14.97;7.70;;;;;;;;;;526763;28;1207;-61
2022/10/30 00:29:57;;;;;;;12.93;7.77;;;;;;;;;;525252;28;1106;-62
2022/10/30 00:30:14;;;;;;;13.23;7.83;;;;;;;;;;523307;27;1203;-62
2022/10/30 00:30:29;;;;;;;16.60;7.90;;;;;;;;;;528953;27;1136;-61
2022/10/30 00:30:44;;;;;;;17.35;7.93;;;;;;;;;;523540;28;1147;-62
2022/10/30 00:31:01;;;;;;;18.00;7.80;;;;;;;;;;523185;28;1495;-61
2022/10/30 00:31:17;;;;;;;16.48;7.60;;;;;;;;;;522456;28;1149;-62
2022/10/30 00:31:32;;;;;;;13.80;7.68;;;;;;;;;;523884;28;1426;-62
2022/10/30 00:31:48;;;;;;;16.70;7.97;;;;;;;;;;520333;28;1282;-62
2022/10/30 00:32:03;;;;;;;17.67;8.20;;;;;;;;;;520767;28;1290;-62
2022/10/30 00:32:18;;;;;;;18.33;8.30;;;;;;;;;;519829;28;1029;-62
2022/10/30 00:32:34;;;;;;;18.43;8.10;;;;;;;;;;517528;28;988;-62
2022/10/30 00:32:49;;;;;;;19.40;8.20;;;;;;;;;;520557;28;1158;-62
2022/10/30 00:33:04;;;;;;;19.48;8.15;;;;;;;;;;519635;28;1971;-62
2022/10/30 00:33:19;;;;;;;18.10;8.03;;;;;;;;;;518180;28;1093;-62
2022/10/30 00:33:35;;;;;;;17.73;8.20;;;;;;;;;;518339;28;1149;-62
2022/10/30 00:33:51;;;;;;;16.37;8.13;;;;;;;;;;519658;28;1098;-61
2022/10/30 00:34:07;;;;;;;18.50;8.32;;;;;;;;;;520718;28;1239;-62
2022/10/30 00:34:22;;;;;;;19.47;8.73;;;;;;;;;;520590;28;1333;-62
2022/10/30 00:34:37;;;;;;;16.60;8.60;;;;;;;;;;524094;28;1109;-62
2022/10/30 00:34:52;;;;;;;17.07;8.50;;;;;;;;;;525129;28;1117;-61
2022/10/30 00:35:09;;;;;;;18.87;8.70;;;;;;;;;;527247;27;1117;-61
2022/10/30 00:35:24;;;;;;;15.98;8.52;;;;;;;;;;523125;28;1109;-61
2022/10/30 00:35:47;;;;;;;16.10;8.47;;;;;;;;;;522119;28;1285;-61
2022/10/30 00:36:02;;;;;;;18.75;8.65;;;;;;;;;;522063;28;1130;-62
2022/10/30 00:36:18;;;;;;;18.77;8.60;;;;;;;;;;524590;28;1125;-62
2022/10/30 00:36:33;;;;;;;18.17;8.73;;;;;;;;;;523734;28;1383;-62
2022/10/30 00:36:49;;;;;;;17.60;8.53;;;;;;;;;;524071;28;1502;-61
2022/10/30 00:37:04;;;;;;;16.50;8.10;;;;;;;;;;521077;28;1404;-62
2022/10/30 00:37:19;;;;;;;14.13;7.95;;;;;;;;;;522859;28;1023;-62
2022/10/30 00:37:35;;;;;;;13.67;7.80;;;;;;;;;;525542;27;1152;-61
2022/10/30 00:37:50;;;;;;;15.87;8.20;;;;;;;;;;524966;28;1193;-61
2022/10/30 00:38:05;;;;;;;15.98;8.60;;;;;;;;;;520624;28;1087;-62
2022/10/30 00:38:21;;;;;;;16.63;8.37;;;;;;;;;;520156;28;1162;-61
2022/10/30 00:38:36;;;;;;;19.87;8.27;;;;;;;;;;523189;28;1121;-61
2022/10/30 00:38:51;;;;;;;19.25;8.38;;;;;;;;;;522644;28;1372;-61
2022/10/30 00:39:06;;;;;;;17.83;8.67;;;;;;;;;;524428;28;1058;-62
2022/10/30 00:39:22;;;;;;;17.30;9.07;;;;;;;;;;524540;28;1125;-62
2022/10/30 00:39:37;;;;;;;14.43;8.83;;;;;;;;;;523390;28;1051;-61
2022/10/30 00:39:52;;;;;;;15.25;8.38;;;;;;;;;;522017;28;1223;-62
2022/10/30 00:40:14;;;;;;;20.07;8.43;;;;;;;;;;524187;28;1090;-62
2022/10/30 00:40:29;;;;;;;17.10;8.68;;;;;;;;;;524725;28;1211;-61
2022/10/30 00:40:44;;;;;;;15.10;8.32;;;;;;;;;;525241;28;1408;-61
2022/10/30 00:41:00;;;;;;;15.83;8.53;;;;;;;;;;523504;28;1038;-61
2022/10/30 00:41:17;;;;;;;17.17;8.60;;;;;;;;;;526079;27;1295;-62
2022/10/30 00:41:32;;;;;;;20.33;8.63;;;;;;;;;;525050;28;1122;-61
2022/10/30 00:41:47;;;;;;;18.17;8.63;;;;;;;;;;527193;27;1006;-62
2022/10/30 00:42:03;;;;;;;16.93;8.57;;;;;;;;;;526096;28;1152;-61
2022/10/30 00:42:18;;;;;;;16.13;8.40;;;;;;;;;;526302;27;1160;-62
2022/10/30 00:42:33;;;;;;;18.73;8.40;;;;;;;;;;523603;28;1017;-61
2022/10/30 00:42:49;;;;;;;18.03;8.60;;;;;;;;;;524671;28;1098;-62
2022/10/30 00:43:27;;;;;;;14.75;8.90;;;;;;;;;;521816;28;1333;-62
2022/10/30 00:43:43;;;;;;;18.58;9.15;;;;;;;;;;522137;28;1142;-62
2022/10/30 00:43:58;;;;;;;21.17;9.00;;;;;;;;;;522373;28;1387;-62
2022/10/30 00:44:35;;;;;;;18.10;8.67;;;;;;;;;;522987;28;1216;-62
2022/10/30 00:44:54;;;;;;;13.00;8.20;;;;;;;;;;525293;28;1354;-62
2022/10/30 00:45:12;;;;;;;12.95;7.38;;;;;;;;;;528773;27;974;-61
2022/10/30 00:45:27;;;;;;;15.77;8.05;;;;;;;;;;526048;27;1504;-61
2022/10/30 00:45:42;;;;;;;17.43;8.43;;;;;;;;;;520327;28;1425;-62
2022/10/30 00:46:03;;;;;;;15.13;7.93;;;;;;;;;;521895;28;1115;-62
2022/10/30 00:46:35;;;;;;;14.18;7.70;;;;;;;;;;519964;28;1573;-61
2022/10/30 00:46:51;;;;;;;15.68;8.30;;;;;;;;;;519339;28;1079;-61
2022/10/30 00:47:11;;;;;;;12.90;7.75;;;;;;;;;;519167;28;1560;-62
2022/10/30 00:47:26;;;;;;;11.73;7.60;;;;;;;;;;520448;28;1020;-62
2022/10/30 00:47:50;;;;;;;15.67;7.93;;;;;;;;;;522290;28;1168;-62
2022/10/30 00:48:09;;;;;;;15.20;7.63;;;;;;;;;;525818;27;917;-61
2022/10/30 00:48:25;;;;;;;14.32;7.80;;;;;;;;;;527068;27;1172;-61
2022/10/30 00:48:42;;;;;;;13.43;7.67;;;;;;;;;;526985;27;1109;-62
2022/10/30 00:49:16;;;;;;;14.20;7.82;;;;;;;;;;527097;27;1215;-62
2022/10/30 00:49:36;;;;;;;18.65;8.00;;;;;;;;;;528153;27;1144;-62
2022/10/30 00:49:59;;;;;;;19.05;8.15;;;;;;;;;;527703;27;1100;-62
2022/10/30 00:50:20;;;;;;;13.95;8.38;;;;;;;;;;528183;27;1073;-62
2022/10/30 00:50:36;;;;;;;12.20;7.78;;;;;;;;;;528079;27;1112;-61
2022/10/30 00:50:52;;;;;;;13.45;7.70;;;;;;;;;;528594;27;1053;-62
2022/10/30 00:51:10;;;;;;;14.90;7.90;;;;;;;;;;528113;27;1074;-62
2022/10/30 00:51:27;;;;;;;15.63;7.95;;;;;;;;;;525506;28;1164;-62
2022/10/30 00:51:50;;;;;;;15.43;7.70;;;;;;;;;;525162;28;1506;-62
2022/10/30 00:52:07;;;;;;;16.85;8.02;;;;;;;;;;522914;28;1210;-62
2022/10/30 00:52:28;;;;;;;14.23;7.82;;;;;;;;;;524346;28;1066;-62
2022/10/30 00:52:49;;;;;;;13.15;7.85;;;;;;;;;;523185;28;1133;-62
2022/10/30 00:53:14;;;;;;;13.52;7.75;;;;;;;;;;523644;28;1894;-61
2022/10/30 00:53:29;;;;;;;14.25;7.57;;;;;;;;;;525272;27;1340;-61
2022/10/30 00:53:46;;;;;;;16.13;7.90;;;;;;;;;;525486;28;1104;-61
2022/10/30 00:54:03;;;;;;;15.07;7.65;;;;;;;;;;526150;27;1110;-62
2022/10/30 00:54:20;;;;;;;13.68;7.10;;;;;;;;;;525648;27;1112;-61
2022/10/30 00:54:36;;;;;;;15.40;7.35;;;;;;;;;;525299;27;1184;-61
2022/10/30 00:54:53;;;;;;;11.82;7.07;;;;;;;;;;526007;27;1166;-61
2022/10/30 00:55:12;;;;;;;12.88;7.20;;;;;;;;;;524201;28;1189;-62
2022/10/30 00:55:37;;;;;;;14.50;7.47;;;;;;;;;;524103;28;1347;-61
2022/10/30 00:56:00;;;;;;;17.50;7.47;;;;;;;;;;520878;28;1427;-62
2022/10/30 00:56:19;;;;;;;16.48;7.57;;;;;;;;;;522038;28;1075;-61
2022/10/30 00:56:35;;;;;;;17.60;7.68;;;;;;;;;;523190;28;1086;-62
2022/10/30 00:56:51;;;;;;;16.65;7.68;;;;;;;;;;521613;28;1187;-62
2022/10/30 00:57:08;;;;;;;16.60;7.45;;;;;;;;;;522292;28;1157;-62
2022/10/30 00:57:24;;;;;;;16.73;7.28;;;;;;;;;;523635;28;1294;-62
2022/10/30 00:57:41;;;;;;;16.38;7.82;;;;;;;;;;520982;28;1350;-62
2022/10/30 00:57:59;;;;;;;16.13;7.53;;;;;;;;;;520449;28;1241;-62
2022/10/30 00:58:18;;;;;;;13.50;7.20;;;;;;;;;;523166;28;1089;-61
2022/10/30 00:58:41;;;;;;;12.25;7.22;;;;;;;;;;521145;28;1200;-61
2022/10/30 00:59:00;;;;;;;16.13;7.78;;;;;;;;;;522638;28;1236;-61
2022/10/30 00:59:21;;;;;;;14.60;7.43;;;;;;;;;;522696;28;1035;-61
2022/10/30 00:59:37;;;;;;;12.93;7.20;;;;;;;;;;525607;27;1138;-62
2022/10/30 00:59:52;;;;;;;14.75;7.22;;;;;;;;;;525690;27;1489;-61
2022/10/30 01:00:09;;;;;;;17.07;7.40;;;;;;;;;;526826;27;1184;-62
2022/10/30 01:00:27;;;;;;;19.63;7.93;;;;;;;;;;524020;28;1024;-62
2022/10/30 01:00:46;;;;;;;18.73;7.78;;;;;;;;;;525757;27;1348;-61
2022/10/30 01:01:06;;;;;;;16.45;7.55;;;;;;;;;;525551;28;2187;-61
2022/10/30 01:01:25;;;;;;;13.32;7.80;;;;;;;;;;522877;28;960;-61
2022/10/30 01:01:43;;;;;;;15.45;7.88;;;;;;;;;;522202;28;1133;-61
2022/10/30 01:02:01;;;;;;;18.42;8.00;;;;;;;;;;523283;28;1244;-61
2022/10/30 01:02:19;;;;;;;14.73;7.22;;;;;;;;;;523818;28;1121;-61
2022/10/30 01:02:34;;;;;;;13.00;7.38;;;;;;;;;;525206;27;1085;-61
2022/10/30 01:02:51;;;;;;;13.27;7.40;;;;;;;;;;527775;27;1136;-61
2022/10/30 01:03:06;;;;;;;13.25;7.15;;;;;;;;;;524690;28;1764;-61
2022/10/30 01:03:23;;;;;;;12.50;7.03;;;;;;;;;;522381;27;977;-62
2022/10/30 01:03:39;;;;;;;11.73;7.10;;;;;;;;;;526245;28;1038;-61
2022/10/30 01:03:57;;;;;;;13.13;7.03;;;;;;;;;;525354;28;1346;-62
2022/10/30 01:04:15;;;;;;;14.52;6.95;;;;;;;;;;523926;28;1149;-62
2022/10/30 01:04:34;;;;;;;14.98;7.15;;;;;;;;;;523950;28;1091;-62
2022/10/30 01:04:52;;;;;;;13.85;7.22;;;;;;;;;;519943;28;2211;-61
2022/10/30 01:05:09;;;;;;;12.70;6.85;;;;;;;;;;524861;27;983;-62
2022/10/30 01:05:27;;;;;;;14.38;6.70;;;;;;;;;;523292;28;1353;-62
2022/10/30 01:05:44;;;;;;;16.77;6.88;;;;;;;;;;524352;28;952;-62
2022/10/30 01:06:03;;;;;;;15.20;7.05;;;;;;;;;;525864;28;1014;-61
2022/10/30 01:06:19;;;;;;;12.75;7.10;;;;;;;;;;524858;28;1082;-62
2022/10/30 01:06:40;;;;;;;14.60;7.07;;;;;;;;;;525559;28;1132;-62
2022/10/30 01:06:57;;;;;;;15.27;7.28;;;;;;;;;;527075;27;1215;-62
2022/10/30 01:07:15;;;;;;;17.90;7.65;;;;;;;;;;526617;27;1117;-62
2022/10/30 01:07:30;;;;;;;15.00;7.20;;;;;;;;;;525760;27;1268;-62
2022/10/30 01:07:45;;;;;;;14.23;6.97;;;;;;;;;;526185;28;973;-62
2022/10/30 01:08:00;;;;;;;13.67;7.03;;;;;;;;;;524981;28;1313;-62
2022/10/30 01:08:16;;;;;;;13.27;7.13;;;;;;;;;;525553;28;1259;-61
2022/10/30 01:08:32;;;;;;;13.73;7.00;;;;;;;;;;526054;27;1176;-61
2022/10/30 01:08:49;;;;;;;16.15;7.07;;;;;;;;;;522937;28;1381;-61
2022/10/30 01:09:04;;;;;;;15.40;6.90;;;;;;;;;;524173;28;1303;-61
2022/10/30 01:09:20;;;;;;;14.33;6.77;;;;;;;;;;524496;28;1515;-61
2022/10/30 01:09:37;;;;;;;16.45;6.90;;;;;;;;;;522212;28;1543;-61
2022/10/30 01:09:53;;;;;;;15.85;7.30;;;;;;;;;;522107;28;1106;-62
2022/10/30 01:10:09;;;;;;;13.70;7.20;;;;;;;;;;521975;28;1119;-61
2022/10/30 01:10:25;;;;;;;14.45;7.40;;;;;;;;;;525404;28;1601;-61
2022/10/30 01:10:40;;;;;;;15.53;7.30;;;;;;;;;;522935;28;1240;-62
2022/10/30 01:10:58;;;;;;;12.43;7.00;;;;;;;;;;522102;28;1094;-62
2022/10/30 01:11:14;;;;;;;14.05;7.32;;;;;;;;;;522008;28;1495;-62
2022/10/30 01:11:29;;;;;;;15.60;7.70;;;;;;;;;;524904;27;1258;-61
2022/10/30 01:11:45;;;;;;;13.90;7.30;;;;;;;;;;526862;27;1073;-62
2022/10/30 01:12:00;;;;;;;14.27;7.03;;;;;;;;;;525187;27;1161;-62
2022/10/30 01:12:15;;;;;;;16.53;7.30;;;;;;;;;;525476;28;1284;-61
2022/10/30 01:12:31;;;;;;;18.70;7.90;;;;;;;;;;520622;28;1135;-62
2022/10/30 01:12:48;;;;;;;18.48;7.95;;;;;;;;;;520173;28;1275;-61
2022/10/30 01:13:04;;;;;;;15.85;7.65;;;;;;;;;;520315;28;1923;-62
2022/10/30 01:13:22;;;;;;;12.88;7.32;;;;;;;;;;520000;28;1089;-62
2022/10/30 01:13:39;;;;;;;12.60;6.95;;;;;;;;;;521319;28;1154;-62
2022/10/30 01:13:59;;;;;;;15.32;7.53;;;;;;;;;;522548;28;1147;-61
2022/10/30 01:14:17;;;;;;;14.23;7.50;;;;;;;;;;521267;28;1398;-62
2022/10/30 01:14:39;;;;;;;14.57;7.20;;;;;;;;;;522053;28;1022;-62
2022/10/30 01:14:57;;;;;;;18.80;7.85;;;;;;;;;;525746;28;1120;-61
2022/10/30 01:15:13;;;;;;;19.45;7.70;;;;;;;;;;525442;28;1133;-62
2022/10/30 01:15:35;;;;;;;19.02;7.47;;;;;;;;;;525682;27;1239;-62
2022/10/30 01:16:09;;;;;;;13.27;6.90;;;;;;;;;;526401;27;1078;-62
2022/10/30 01:16:48;;;;;;;17.55;7.10;;;;;;;;;;524877;27;971;-62
2022/10/30 01:17:24;;;;;;;15.00;7.78;;;;;;;;;;525897;27;1201;-62
2022/10/30 01:18:07;;;;;;;14.07;7.18;;;;;;;;;;524441;27;1800;-62
2022/10/30 01:18:44;;;;;;;16.75;7.53;;;;;;;;;;525351;27;948;-61
2022/10/30 01:19:20;;;;;;;15.85;7.53;;;;;;;;;;524650;28;987;-61
2022/10/30 01:20:04;;;;;;;15.45;7.75;;;;;;;;;;524413;27;997;-62
2022/10/30 01:20:25;;;;;;;14.90;7.70;;;;;;;;;;527177;27;1113;-61
2022/10/30 01:21:30;;;;;;;15.52;7.82;;;;;;;;;;525366;27;1398;-61
2022/10/30 01:22:14;;;;;;;12.98;7.20;;;;;;;;;;518596;28;1266;-61
2022/10/30 01:22:50;;;;;;;14.38;7.55;;;;;;;;;;526242;28;1192;-61
2022/10/30 01:23:21;;;;;;;20.33;7.20;;;;;;;;;;527665;27;999;-62
2022/10/30 01:23:55;;;;;;;13.93;6.75;;;;;;;;;;526528;27;1109;-62
2022/10/30 01:24:27;;;;;;;13.25;7.00;;;;;;;;;;528619;27;1077;-62
2022/10/30 01:24:47;;;;;;;14.23;7.05;;;;;;;;;;525139;27;1117;-61
2022/10/30 01:25:39;;;;;;;15.73;6.70;;;;;;;;;;522415;28;1290;-61
2022/10/30 01:26:05;;;;;;;13.15;7.35;;;;;;;;;;522443;28;1330;-62
2022/10/30 01:26:45;;;;;;;10.98;6.38;;;;;;;;;;524010;28;995;-61
2022/10/30 01:27:34;;;;;;;14.48;7.10;;;;;;;;;;526280;27;1231;-61
2022/10/30 01:27:55;;;;;;;17.42;7.40;;;;;;;;;;527130;27;1091;-62
2022/10/30 01:28:31;;;;;;;15.20;6.82;;;;;;;;;;528727;27;1147;-61
2022/10/30 01:29:09;;;;;;;15.27;7.43;;;;;;;;;;526774;27;1407;-61
2022/10/30 01:29:30;;;;;;;14.60;7.07;;;;;;;;;;527073;27;975;-62
2022/10/30 01:29:59;;;;;;;11.88;7.00;;;;;;;;;;527961;27;1169;-61
2022/10/30 01:30:30;;;;;;;15.15;6.75;;;;;;;;;;527850;27;1137;-62
2022/10/30 01:30:58;;;;;;;11.90;6.60;;;;;;;;;;527963;27;1327;-61
2022/10/30 01:31:49;;;;;;;14.20;6.70;;;;;;;;;;527301;27;1152;-61
2022/10/30 01:32:10;;;;;;;12.45;7.18;;;;;;;;;;528189;27;1341;-62
2022/10/30 01:32:39;;;;;;;14.10;7.07;;;;;;;;;;528315;27;1260;-61
2022/10/30 01:33:08;;;;;;;13.32;6.85;;;;;;;;;;528874;27;993;-62
2022/10/30 01:33:56;;;;;;;12.13;6.93;;;;;;;;;;526491;27;1164;-61
2022/10/30 01:34:20;;;;;;;13.40;7.00;;;;;;;;;;523650;28;1374;-61
2022/10/30 01:34:50;;;;;;;15.35;7.00;;;;;;;;;;526252;27;1244;-61
2022/10/30 01:35:26;;;;;;;14.63;6.72;;;;;;;;;;524154;28;1163;-61
2022/10/30 01:35:59;;;;;;;13.60;6.63;;;;;;;;;;524566;28;1088;-61
2022/10/30 01:36:27;;;;;;;13.10;6.97;;;;;;;;;;523599;27;1237;-61
2022/10/30 01:36:49;;;;;;;14.68;6.85;;;;;;;;;;524718;28;1129;-62
2022/10/30 01:37:11;;;;;;;13.43;6.97;;;;;;;;;;521633;28;1392;-62
2022/10/30 01:37:51;;;;;;;12.07;6.53;;;;;;;;;;525427;28;1289;-61
2022/10/30 01:38:21;;;;;;;16.10;6.80;;;;;;;;;;525241;28;1228;-61
2022/10/30 01:39:05;;;;;;;14.57;6.75;;;;;;;;;;522993;28;1078;-61
2022/10/30 01:39:24;;;;;;;11.85;6.85;;;;;;;;;;519874;28;1434;-61
2022/10/30 01:39:40;;;;;;;12.80;6.78;;;;;;;;;;523795;28;1114;-61
2022/10/30 01:39:55;;;;;;;14.90;6.70;;;;;;;;;;524788;28;1105;-61
2022/10/30 01:40:14;;;;;;;15.07;6.80;;;;;;;;;;525340;28;1485;-61
2022/10/30 01:40:31;;;;;;;12.25;6.85;;;;;;;;;;522095;28;1598;-62
2022/10/30 01:40:47;;;;;;;11.40;6.40;;;;;;;;;;523801;28;1133;-62
2022/10/30 01:41:02;;;;;;;13.73;6.47;;;;;;;;;;520912;28;1326;-62
2022/10/30 01:41:17;;;;;;;14.63;6.70;;;;;;;;;;521515;28;1280;-61
2022/10/30 01:41:32;;;;;;;15.13;6.68;;;;;;;;;;523136;28;1094;-61
2022/10/30 01:41:48;;;;;;;15.13;6.60;;;;;;;;;;522764;28;1261;-61
2022/10/30 01:42:44;;;;;;;16.00;6.87;;;;;;;;;;520985;28;1236;-61
2022/10/30 01:42:59;;;;;;;14.23;7.18;;;;;;;;;;519916;28;1030;-62
2022/10/30 01:43:14;;;;;;;14.55;7.15;;;;;;;;;;523555;28;1310;-61
2022/10/30 01:43:31;;;;;;;13.10;6.83;;;;;;;;;;521559;28;974;-62
2022/10/30 01:43:53;;;;;;;12.68;6.72;;;;;;;;;;520555;28;1165;-62
2022/10/30 01:44:14;;;;;;;16.27;7.18;;;;;;;;;;523016;28;1067;-62
2022/10/30 01:44:32;;;;;;;15.88;7.50;;;;;;;;;;521498;28;1161;-62
2022/10/30 01:44:47;;;;;;;15.45;7.40;;;;;;;;;;520998;28;1116;-62
2022/10/30 01:45:03;;;;;;;14.00;7.18;;;;;;;;;;520432;28;1040;-62
2022/10/30 01:45:23;;;;;;;12.40;6.90;;;;;;;;;;521417;28;1251;-61
2022/10/30 01:45:59;;;;;;;15.55;7.20;;;;;;;;;;521213;28;1068;-61
2022/10/30 01:46:39;;;;;;;14.50;7.13;;;;;;;;;;522887;28;1082;-61
2022/10/30 01:47:26;;;;;;;13.90;7.30;;;;;;;;;;524270;28;1339;-62
2022/10/30 01:48:07;;;;;;;14.18;7.30;;;;;;;;;;524206;27;1243;-61
2022/10/30 01:48:53;;;;;;;16.30;7.22;;;;;;;;;;517116;28;1247;-61
2022/10/30 01:49:17;;;;;;;16.20;7.90;;;;;;;;;;516826;28;1110;-62
2022/10/30 01:49:33;;;;;;;16.23;7.47;;;;;;;;;;517676;28;1032;-61
2022/10/30 01:50:36;;;;;;;14.67;7.03;;;;;;;;;;514732;28;1322;-61
2022/10/30 01:51:16;;;;;;;14.90;7.20;;;;;;;;;;518091;28;1430;-61
2022/10/30 01:51:37;;;;;;;16.80;7.68;;;;;;;;;;518182;28;1098;-61
2022/10/30 01:51:58;;;;;;;14.63;7.18;;;;;;;;;;518613;28;1150;-61
2022/10/30 01:52:38;;;;;;;12.52;7.40;;;;;;;;;;520469;28;1079;-61
2022/10/30 01:53:04;;;;;;;15.38;7.30;;;;;;;;;;518455;28;1116;-61
2022/10/30 01:53:35;;;;;;;16.95;7.25;;;;;;;;;;518916;28;1309;-61
2022/10/30 01:54:28;;;;;;;16.42;7.75;;;;;;;;;;519273;28;1161;-61
2022/10/30 01:54:55;;;;;;;15.15;7.60;;;;;;;;;;520386;28;1190;-61
2022/10/30 01:55:19;;;;;;;17.27;7.30;;;;;;;;;;518941;28;1163;-61
2022/10/30 01:55:45;;;;;;;17.13;7.43;;;;;;;;;;518058;28;1185;-62
2022/10/30 01:56:22;;;;;;;19.33;7.45;;;;;;;;;;517502;28;1058;-61
2022/10/30 01:57:06;;;;;;;15.85;7.60;;;;;;;;;;516560;28;1147;-61
2022/10/30 01:57:50;;;;;;;14.68;7.22;;;;;;;;;;518352;28;1158;-61
2022/10/30 01:58:18;;;;;;;14.63;7.03;;;;;;;;;;512417;28;1312;-61
2022/10/30 01:58:43;;;;;;;14.98;7.18;;;;;;;;;;518645;28;2501;-61
2022/10/30 01:59:16;;;;;;;17.48;7.32;;;;;;;;;;519741;28;1310;-62
2022/10/30 02:00:14;;;;;;;15.80;7.28;;;;;;;;;;518148;28;1111;-61
2022/10/30 02:00:29;;;;;;;16.45;7.60;;;;;;;;;;514022;28;1431;-62
2022/10/30 02:00:47;;;;;;;15.50;7.22;;;;;;;;;;520815;28;1741;-62
2022/10/30 02:01:03;;;;;;;13.85;7.35;;;;;;;;;;519258;28;1157;-62
2022/10/30 02:01:19;;;;;;;16.65;7.68;;;;;;;;;;521828;28;1141;-62
2022/10/30 02:01:37;;;;;;;17.60;7.53;;;;;;;;;;519413;28;1175;-62
2022/10/30 02:01:52;;;;;;;16.75;7.70;;;;;;;;;;518344;28;1354;-61
2022/10/30 02:02:08;;;;;;;17.60;7.97;;;;;;;;;;518241;28;1303;-61
2022/10/30 02:02:23;;;;;;;16.42;7.60;;;;;;;;;;516815;28;2444;-62
2022/10/30 02:02:40;;;;;;;15.63;7.20;;;;;;;;;;516906;28;1122;-61